This is the latest recevied weather packets stored in our database for station/object EA2AFZ-W. If no packets are shown the sender has not sent any weather packets the latest 10 day(s).
| Time | Temp. | Humidity | Pressure | Rain* | Wind** | Luminosity | Snow |
|---|---|---|---|---|---|---|---|
| 1787949940 | 20° C | 63% | 1020 hPa | 0 mm | - | - | - |
| 1787948135 | 20.56° C | 61% | 1020 hPa | 0 mm | - | - | - |
| 1787946332 | 21.67° C | 61% | 1020 hPa | 0 mm | - | - | - |
| 1787944530 | 21.67° C | 57% | 1019 hPa | 0 mm | - | - | - |
| 1787942728 | 22.78° C | 56% | 1019 hPa | 0 mm | - | - | - |
| 1787940926 | 23.33° C | 49% | 1019 hPa | 0 mm | - | - | - |
| 1787939122 | 24.44° C | 43% | 1019 hPa | 0 mm | - | - | - |
| 1787937320 | 25° C | 39% | 1018 hPa | 0 mm | - | - | - |
| 1787935518 | 25.56° C | 37% | 1018 hPa | 0 mm | - | - | - |
| 1787933716 | 25.56° C | 36% | 1018 hPa | 0 mm | - | - | - |
| 1787931913 | 26.11° C | 35% | 1018 hPa | 0 mm | - | - | - |
| 1787930113 | 26.67° C | 34% | 1018 hPa | 0 mm | - | - | - |
| 1787928308 | 27.78° C | 33% | 1018 hPa | 0 mm | - | - | - |
| 1787926506 | 27.22° C | 32% | 1017 hPa | 0 mm | - | - | - |
| 1787924764 | 27.22° C | 32% | 1017 hPa | 0 mm | - | - | - |
| 1787922963 | 27.22° C | 31% | 1017 hPa | 0 mm | - | - | - |
| 1787921160 | 27.22° C | 32% | 1017 hPa | 0 mm | - | - | - |
| 1787919357 | 25.56° C | 33% | 1017 hPa | 0 mm | - | - | - |
| 1787917554 | 25.56° C | 34% | 1017 hPa | 0 mm | - | - | - |
| 1787915752 | 25° C | 35% | 1017 hPa | 0 mm | - | - | - |
| 1787913950 | 23.89° C | 37% | 1017 hPa | 0 mm | - | - | - |
| 1787912149 | 22.78° C | 38% | 1018 hPa | 0 mm | - | - | - |
| 1787910346 | 21.67° C | 41% | 1018 hPa | 0 mm | - | - | - |
| 1787908543 | 21.11° C | 42% | 1018 hPa | 0 mm | - | - | - |
| 1787906741 | 20.56° C | 44% | 1018 hPa | 0 mm | - | - | - |
* Rain latest hour (hover to see other rain measurements)
** Current wind speed in m/s (hover to see current wind gust speed)